PST,Max TemperatureF,Mean TemperatureF,Min TemperatureF,Max Dew PointF,MeanDew PointF,Min DewpointF,Max Humidity, Mean Humidity, Min Humidity, Max Sea Level PressureIn, Mean Sea Level PressureIn, Min Sea Level PressureIn, Max VisibilityMiles, Mean VisibilityMiles, Min VisibilityMiles, Max Wind SpeedMPH, Mean Wind SpeedMPH, Max Gust SpeedMPH,PrecipitationIn, CloudCover, Events, WindDirDegrees
2011-11-1,53,42,31,27,24,21,70,50,30,30.53,30.47,30.38,10,10,8,9,3,10,0.00,0,,312
2011-11-2,47,37,26,27,24,22,85,62,38,30.45,30.14,29.83,10,10,10,10,4,13,0.00,2,,312
2011-11-3,44,39,33,31,27,22,70,57,31,29.85,29.81,29.76,10,10,10,9,4,,0.03,2,,297
2011-11-4,44,35,25,27,23,19,85,59,29,29.87,29.83,29.78,10,10,10,18,7,,T,0,,296
2011-11-5,44,35,25,24,21,19,75,56,37,29.91,29.84,29.80,10,10,10,13,4,15,0.00,0,,50
2011-11-6,40,27,13,24,22,19,84,68,47,30.17,30.03,29.91,10,10,10,6,2,,0.00,1,,341
2011-11-7,37,30,22,26,24,20,92,76,59,30.24,30.21,30.17,10,8,0,6,2,24,0.00,2,Fog,75
2011-11-8,47,36,24,31,28,23,89,77,60,30.39,30.31,30.23,10,10,7,6,2,,0.00,2,,288
2011-11-9,47,40,32,33,31,29,82,71,60,30.45,30.38,30.30,10,10,10,8,2,10,0.00,4,,303
2011-11-10,48,38,28,33,30,28,100,77,53,30.28,30.14,29.99,10,10,7,9,2,,0.00,0,,8
2011-11-11,48,35,21,36,29,24,93,83,65,29.93,29.61,29.36,10,8,4,18,7,28,0.40,3,Rain,59
2011-11-12,44,37,30,29,27,23,85,67,49,29.78,29.66,29.48,10,10,9,17,6,20,T,3,,348
2011-11-13,46,39,31,33,27,20,82,47,35,29.71,29.64,29.51,10,10,10,28,14,38,T,1,,314
2011-11-14,47,35,22,32,23,16,65,46,31,30.04,29.81,29.63,10,10,10,23,14,31,T,0,,325
2011-11-15,39,27,14,23,18,13,69,49,25,30.32,30.22,30.05,10,10,10,14,5,,0.00,2,,317
2011-11-16,36,24,12,27,25,18,93,86,64,30.31,30.02,29.68,10,4,0,8,1,,0.15,7,Fog-Snow,310
2011-11-17,40,35,29,29,26,22,93,75,43,29.78,29.68,29.59,10,9,2,21,5,32,0.21,4,Rain-Snow,300
2011-11-18,33,28,22,30,27,22,100,85,60,29.74,29.59,29.53,10,8,0,7,3,,0.15,2,Fog,296
2011-11-19,23,22,20,28,24,21,93,87,80,29.99,29.87,29.76,10,7,1,6,2,,0.01,6,Snow,312
2011-11-20,30,26,21,25,23,18,92,81,69,30.05,29.99,29.92,10,10,9,7,1,8,0.00,7,,351
2011-11-21,33,30,27,29,26,24,92,84,75,29.96,29.85,29.74,10,5,1,61,3,,0.03,7,Snow,115
2011-11-22,50,43,36,36,32,28,100,93,79,29.72,29.62,29.53,10,7,2,9,3,122,0.37,7,Rain-Snow,285
2011-11-23,55,44,33,40,36,28,92,71,50,29.77,29.56,29.42,10,10,10,25,9,29,T,5,,334
2011-11-24,40,34,28,32,29,25,100,85,70,29.83,29.75,29.65,10,10,7,16,4,22,0.01,3,Rain,28
2011-11-25,46,39,32,31,25,20,85,60,34,30.53,30.23,29.77,10,10,5,29,7,36,0.00,2,,306
2011-11-26,37,33,28,28,27,26,82,73,58,30.53,30.44,30.31,10,10,10,8,2,,T,3,,304
2011-11-27,50,39,28,36,30,25,92,76,60,30.28,30.12,29.97,10,10,10,12,3,,T,0,,323
2011-11-28,42,33,23,33,29,28,85,70,51,30.43,30.38,30.30,10,8,1,12,4,32,0.00,0,,296
2011-11-29,35,29,23,32,30,25,92,79,53,30.39,30.26,30.13,10,10,10,7,2,,T,3,,73
2011-11-30,52,41,30,32,28,21,85,62,39,30.76,30.46,30.20,10,10,10,33,5,62,0.00,0,,280